createdAt,value
2018-02-17T00:00:09.219Z,5.72
2018-02-17T00:02:36.615Z,5.50
2018-02-17T00:05:04.041Z,5.34
2018-02-17T00:07:31.474Z,5.48
2018-02-17T00:09:58.866Z,5.50
2018-02-17T00:12:26.282Z,5.44
2018-02-17T00:14:53.804Z,5.48
2018-02-17T00:17:32.700Z,5.54
2018-02-17T00:20:02.268Z,5.57
2018-02-17T00:22:30.467Z,5.61
2018-02-17T00:24:57.935Z,5.51
2018-02-17T00:27:25.334Z,5.45
2018-02-17T00:29:52.730Z,5.27
2018-02-17T00:32:20.126Z,5.23
2018-02-17T00:34:47.522Z,5.18
2018-02-17T00:37:14.950Z,5.05
2018-02-17T00:39:42.359Z,4.86
2018-02-17T00:42:09.769Z,5.13
2018-02-17T00:44:37.319Z,5.40
2018-02-17T00:47:04.796Z,5.38
2018-02-17T00:49:32.225Z,5.49
2018-02-17T00:51:59.677Z,5.34
2018-02-17T00:54:27.089Z,5.37
2018-02-17T00:56:54.565Z,5.32
2018-02-17T00:59:22.010Z,5.19
2018-02-17T01:01:49.398Z,5.24
2018-02-17T01:04:16.812Z,5.21
2018-02-17T01:06:44.214Z,5.16
2018-02-17T01:09:11.646Z,4.92
2018-02-17T01:11:39.036Z,4.92
2018-02-17T01:14:06.462Z,4.75
2018-02-17T01:16:33.935Z,4.96
2018-02-17T01:19:01.442Z,5.05
2018-02-17T01:21:28.862Z,4.99
2018-02-17T01:23:56.511Z,4.82
2018-02-17T01:26:23.945Z,4.48
2018-02-17T01:28:51.572Z,4.55
2018-02-17T01:31:18.966Z,4.59
2018-02-17T01:33:46.363Z,4.84
2018-02-17T01:36:13.786Z,5.03
2018-02-17T01:38:41.189Z,5.17
2018-02-17T01:41:08.578Z,5.12
2018-02-17T01:43:35.990Z,5.13
2018-02-17T01:46:03.409Z,5.45
2018-02-17T01:48:30.802Z,5.35
2018-02-17T01:50:58.218Z,5.32
2018-02-17T01:53:25.693Z,5.31
2018-02-17T01:55:53.114Z,5.24
2018-02-17T01:58:20.628Z,5.07
2018-02-17T02:00:48.073Z,5.10
2018-02-17T02:03:15.532Z,4.93
2018-02-17T02:05:42.942Z,5.05
2018-02-17T02:08:10.374Z,5.08
2018-02-17T02:10:37.816Z,4.91
2018-02-17T02:13:05.263Z,4.88
2018-02-17T02:15:32.685Z,4.69
2018-02-17T02:18:00.134Z,4.83
2018-02-17T02:20:27.580Z,4.70
2018-02-17T02:22:54.993Z,4.63
2018-02-17T02:25:22.390Z,4.94
2018-02-17T02:27:49.858Z,4.84
2018-02-17T02:30:17.287Z,4.93
2018-02-17T02:32:44.714Z,5.04
2018-02-17T02:35:12.107Z,4.90
2018-02-17T02:37:39.498Z,4.81
2018-02-17T02:40:06.923Z,4.82
2018-02-17T02:42:34.318Z,4.81
2018-02-17T02:45:01.717Z,4.45
2018-02-17T02:47:29.181Z,4.41
2018-02-17T02:49:56.574Z,4.43
2018-02-17T02:52:23.962Z,4.45
2018-02-17T02:54:51.369Z,4.49
2018-02-17T02:57:18.764Z,4.57
2018-02-17T02:59:46.153Z,4.53
2018-02-17T03:02:13.583Z,4.65
2018-02-17T03:04:41.016Z,4.49
2018-02-17T03:07:08.409Z,4.37
2018-02-17T03:09:35.814Z,4.21
2018-02-17T03:12:03.281Z,3.93
2018-02-17T03:14:30.669Z,4.11
2018-02-17T03:16:58.073Z,4.20
2018-02-17T03:19:25.509Z,3.95
2018-02-17T03:21:52.912Z,4.01
2018-02-17T03:24:20.309Z,4.31
2018-02-17T03:26:47.706Z,4.14
2018-02-17T03:29:15.098Z,4.09
2018-02-17T03:31:42.508Z,3.98
2018-02-17T03:34:09.941Z,4.05
2018-02-17T03:36:37.330Z,4.08
2018-02-17T03:39:04.786Z,4.03
2018-02-17T03:41:32.225Z,4.06
2018-02-17T03:43:59.617Z,4.04
2018-02-17T03:46:27.005Z,4.00
2018-02-17T03:48:54.408Z,3.94
2018-02-17T03:51:21.806Z,3.90
2018-02-17T03:53:49.241Z,3.79
2018-02-17T03:56:16.634Z,3.98
2018-02-17T03:58:44.038Z,3.98
2018-02-17T04:01:11.453Z,3.71
2018-02-17T04:03:38.872Z,3.66
2018-02-17T04:06:06.274Z,3.65
2018-02-17T04:08:33.713Z,3.75
2018-02-17T04:11:01.121Z,3.59
2018-02-17T04:13:28.512Z,3.66
2018-02-17T04:15:55.953Z,3.54
2018-02-17T04:18:23.353Z,3.23
2018-02-17T04:20:50.746Z,3.16
2018-02-17T04:23:18.180Z,3.56
2018-02-17T04:25:45.577Z,3.44
2018-02-17T04:28:12.978Z,3.59
2018-02-17T04:30:40.410Z,3.76
2018-02-17T04:33:07.813Z,3.86
2018-02-17T04:35:35.214Z,3.88
2018-02-17T04:38:02.678Z,3.72
2018-02-17T04:40:33.629Z,3.39
2018-02-17T04:43:01.046Z,3.40
2018-02-17T04:45:38.477Z,3.45
2018-02-17T04:48:07.744Z,3.28
2018-02-17T04:50:39.663Z,3.01
2018-02-17T04:56:09.773Z,3.51
2018-02-17T04:58:52.051Z,3.61
2018-02-17T05:01:19.542Z,3.84
2018-02-17T05:03:47.113Z,3.88
2018-02-17T05:06:17.389Z,3.76
2018-02-17T05:09:03.530Z,3.41
2018-02-17T05:11:31.008Z,3.49
2018-02-17T05:14:13.314Z,3.54
2018-02-17T05:16:58.582Z,3.54
2018-02-17T05:19:26.036Z,3.29
2018-02-17T05:22:05.306Z,3.30
2018-02-17T05:24:38.338Z,3.61
2018-02-17T05:27:21.530Z,3.83
2018-02-17T05:29:48.985Z,3.40
2018-02-17T05:32:17.875Z,3.41
2018-02-17T05:34:50.965Z,3.76
2018-02-17T05:37:18.425Z,3.83
2018-02-17T05:39:55.746Z,3.87
2018-02-17T05:42:23.670Z,3.89
2018-02-17T05:44:56.949Z,3.65
2018-02-17T05:47:28.318Z,3.78
2018-02-17T05:50:07.406Z,4.01
2018-02-17T05:52:34.838Z,4.05
2018-02-17T05:55:02.266Z,4.05
2018-02-17T05:57:29.679Z,4.19
2018-02-17T05:59:57.085Z,4.29
2018-02-17T06:02:24.481Z,4.10
2018-02-17T06:04:51.974Z,4.21
2018-02-17T06:07:19.402Z,4.35
2018-02-17T06:09:46.806Z,4.44
2018-02-17T06:12:14.242Z,4.36
2018-02-17T06:14:41.742Z,4.47
2018-02-17T06:17:09.181Z,4.61
2018-02-17T06:19:36.586Z,4.69
2018-02-17T06:22:04.026Z,4.51
2018-02-17T06:24:31.465Z,4.35
2018-02-17T06:26:58.861Z,4.65
2018-02-17T06:29:26.285Z,4.84
2018-02-17T06:31:53.682Z,4.90
2018-02-17T06:34:21.070Z,5.22
2018-02-17T06:36:48.510Z,5.26
2018-02-17T06:39:15.945Z,5.59
2018-02-17T06:41:43.334Z,5.45
2018-02-17T06:44:10.717Z,5.77
2018-02-17T06:46:38.162Z,6.51
2018-02-17T06:49:05.582Z,6.63
2018-02-17T06:51:32.973Z,7.44
2018-02-17T06:54:00.381Z,8.27
2018-02-17T06:56:27.814Z,8.63
2018-02-17T06:58:55.302Z,8.84
2018-02-17T07:01:22.734Z,8.49
2018-02-17T07:03:50.120Z,8.93
2018-02-17T07:06:17.553Z,9.51
2018-02-17T07:08:44.985Z,10.10
2018-02-17T07:11:12.391Z,10.18
2018-02-17T07:13:39.850Z,9.01
2018-02-17T07:16:07.361Z,10.08
2018-02-17T07:18:34.770Z,10.82
2018-02-17T07:21:02.215Z,11.22
2018-02-17T07:23:29.614Z,10.83
2018-02-17T07:25:57.111Z,10.08
2018-02-17T07:28:24.594Z,9.81
2018-02-17T07:30:52.064Z,9.33
2018-02-17T07:33:19.470Z,10.24
2018-02-17T07:35:46.897Z,10.00
2018-02-17T07:38:14.314Z,9.77
2018-02-17T07:40:41.710Z,9.64
2018-02-17T07:43:09.111Z,9.55
2018-02-17T07:45:36.645Z,10.38
2018-02-17T07:48:04.066Z,9.92
2018-02-17T07:50:31.478Z,10.29
2018-02-17T07:52:58.891Z,9.83
2018-02-17T07:55:26.318Z,9.51
2018-02-17T07:57:53.789Z,10.64
2018-02-17T08:00:21.273Z,9.89
2018-02-17T08:02:48.734Z,9.91
2018-02-17T08:05:16.158Z,9.62
2018-02-17T08:07:43.613Z,10.17
2018-02-17T08:10:11.087Z,11.38
2018-02-17T08:12:38.566Z,10.19
2018-02-17T08:15:06.033Z,9.72
2018-02-17T08:17:33.507Z,9.46
2018-02-17T08:20:00.894Z,9.76
2018-02-17T08:22:29.020Z,9.93
2018-02-17T08:24:56.479Z,9.91
2018-02-17T08:27:23.888Z,10.32
2018-02-17T08:29:51.294Z,10.10
2018-02-17T08:32:18.759Z,9.97
2018-02-17T08:34:46.207Z,9.45
2018-02-17T08:37:13.610Z,9.89
2018-02-17T08:39:41.043Z,10.59
2018-02-17T08:42:08.470Z,10.44
2018-02-17T08:44:35.883Z,10.00
2018-02-17T08:47:03.315Z,9.87
2018-02-17T08:49:30.735Z,10.83
2018-02-17T08:51:58.126Z,10.19
2018-02-17T08:54:25.551Z,10.76
2018-02-17T08:56:53.087Z,11.22
2018-02-17T08:59:20.900Z,10.55
2018-02-17T09:01:48.314Z,10.22
2018-02-17T09:04:15.763Z,9.70
2018-02-17T09:06:43.147Z,9.81
2018-02-17T09:09:10.595Z,9.98
2018-02-17T09:11:38.028Z,10.31
2018-02-17T09:14:05.455Z,10.92
2018-02-17T09:16:32.909Z,10.62
2018-02-17T09:19:00.320Z,11.29
2018-02-17T09:21:27.723Z,11.61
2018-02-17T09:23:55.130Z,11.39
2018-02-17T09:26:22.526Z,12.60
2018-02-17T09:28:49.970Z,11.40
2018-02-17T09:31:17.394Z,11.60
2018-02-17T09:33:45.111Z,12.00
2018-02-17T09:36:12.600Z,11.82
2018-02-17T09:38:40.018Z,10.80
2018-02-17T09:41:07.971Z,10.44
2018-02-17T09:43:35.370Z,11.44
2018-02-17T09:46:02.777Z,12.19
2018-02-17T09:48:30.213Z,13.23
2018-02-17T09:50:57.647Z,12.56
2018-02-17T09:53:25.090Z,12.05
2018-02-17T09:55:52.523Z,11.83
2018-02-17T09:58:19.924Z,11.92
2018-02-17T10:00:47.526Z,12.51
2018-02-17T10:03:14.928Z,12.37
2018-02-17T10:05:42.352Z,12.25
2018-02-17T10:08:09.782Z,11.04
2018-02-17T10:10:37.215Z,11.99
2018-02-17T10:13:04.622Z,12.64
2018-02-17T10:15:32.061Z,12.17
2018-02-17T10:17:59.519Z,10.92
2018-02-17T10:20:26.935Z,11.94
2018-02-17T10:22:54.378Z,12.46
2018-02-17T10:25:21.808Z,12.32
2018-02-17T10:27:49.252Z,12.52
2018-02-17T10:30:16.823Z,13.87
2018-02-17T10:32:44.234Z,12.23
2018-02-17T10:35:11.640Z,13.08
2018-02-17T10:37:39.035Z,13.34
2018-02-17T10:40:06.451Z,12.40
2018-02-17T10:42:33.914Z,12.94
2018-02-17T10:45:01.319Z,14.29
2018-02-17T10:47:28.750Z,14.40
2018-02-17T10:49:56.253Z,14.15
2018-02-17T10:52:23.688Z,13.60
2018-02-17T10:54:51.083Z,12.72
2018-02-17T10:57:18.555Z,12.74
2018-02-17T10:59:45.984Z,13.03
2018-02-17T11:02:13.382Z,12.88
2018-02-17T11:04:40.784Z,13.87
2018-02-17T11:07:08.188Z,13.98
2018-02-17T11:09:35.610Z,12.88
2018-02-17T11:12:03.006Z,13.43
2018-02-17T11:14:30.408Z,14.18
2018-02-17T11:16:57.840Z,14.46
2018-02-17T11:19:25.238Z,13.22
2018-02-17T11:21:52.812Z,13.47
2018-02-17T11:24:20.380Z,14.89
2018-02-17T11:26:47.830Z,15.90
2018-02-17T11:29:15.237Z,13.77
2018-02-17T11:31:42.655Z,13.90
2018-02-17T11:34:10.074Z,14.37
2018-02-17T11:36:37.551Z,14.24
2018-02-17T11:39:04.974Z,13.43
2018-02-17T11:41:33.288Z,13.39
2018-02-17T11:44:00.771Z,13.68
2018-02-17T11:46:28.211Z,14.12
2018-02-17T11:48:55.632Z,13.93
2018-02-17T11:51:23.025Z,13.08
2018-02-17T11:53:50.441Z,13.90
2018-02-17T11:56:17.884Z,14.57
2018-02-17T11:58:46.875Z,14.03
2018-02-17T12:01:14.338Z,14.88
2018-02-17T12:03:41.784Z,14.84
2018-02-17T12:06:09.236Z,13.48
2018-02-17T12:08:36.642Z,13.49
2018-02-17T12:11:04.075Z,13.63
2018-02-17T12:13:31.490Z,14.54
2018-02-17T12:15:58.987Z,14.86
2018-02-17T12:18:26.728Z,14.91
2018-02-17T12:20:54.172Z,15.27
2018-02-17T12:23:21.618Z,15.04
2018-02-17T12:25:49.034Z,15.23
2018-02-17T12:28:16.434Z,14.80
2018-02-17T12:30:43.876Z,14.92
2018-02-17T12:33:11.266Z,14.85
2018-02-17T12:35:38.666Z,15.59
2018-02-17T12:38:06.875Z,15.63
2018-02-17T12:40:34.307Z,15.08
2018-02-17T12:43:02.204Z,15.51
2018-02-17T12:45:29.647Z,15.88
2018-02-17T12:47:57.988Z,14.69
2018-02-17T12:50:25.526Z,14.52
2018-02-17T12:52:53.154Z,15.13
2018-02-17T12:55:20.552Z,15.34
2018-02-17T12:57:47.951Z,15.91
2018-02-17T13:00:15.391Z,15.00
2018-02-17T13:02:42.822Z,14.40
2018-02-17T13:05:10.218Z,15.08
2018-02-17T13:07:37.660Z,14.45
2018-02-17T13:10:05.122Z,14.59
2018-02-17T13:12:32.551Z,15.07
2018-02-17T13:14:59.973Z,14.98
2018-02-17T13:17:27.410Z,14.69
2018-02-17T13:19:54.914Z,15.27
2018-02-17T13:22:22.322Z,15.01
2018-02-17T13:24:49.729Z,13.87
2018-02-17T13:27:17.145Z,14.72
2018-02-17T13:29:44.579Z,15.01
2018-02-17T13:32:11.973Z,15.62
2018-02-17T13:34:39.368Z,16.60
2018-02-17T13:39:58.270Z,16.20
2018-02-17T13:42:25.677Z,15.81
2018-02-17T13:44:53.093Z,15.24
2018-02-17T13:47:20.538Z,16.15
2018-02-17T13:49:47.938Z,15.92
2018-02-17T13:52:15.374Z,15.41
2018-02-17T13:54:42.814Z,15.70
2018-02-17T13:57:10.249Z,15.41
2018-02-17T13:59:37.803Z,15.13
2018-02-17T14:02:05.230Z,15.49
2018-02-17T14:04:32.654Z,15.92
2018-02-17T14:07:00.054Z,15.00
2018-02-17T14:09:27.474Z,15.38
2018-02-17T14:11:54.870Z,15.09
2018-02-17T14:14:22.334Z,13.79
2018-02-17T14:16:49.787Z,13.93
2018-02-17T14:19:17.282Z,14.02
2018-02-17T14:21:44.715Z,14.05
2018-02-17T14:24:12.111Z,13.88
2018-02-17T14:26:39.534Z,13.98
2018-02-17T14:29:06.930Z,13.65
2018-02-17T14:31:34.400Z,13.61
2018-02-17T14:34:01.822Z,13.47
2018-02-17T14:36:29.230Z,12.83
2018-02-17T14:38:56.623Z,12.30
2018-02-17T14:41:24.035Z,12.23
2018-02-17T14:43:51.450Z,12.21
2018-02-17T14:46:18.850Z,11.96
2018-02-17T14:48:46.315Z,12.12
2018-02-17T14:51:13.725Z,11.92
2018-02-17T14:53:41.138Z,11.65
2018-02-17T14:56:09.371Z,11.94
2018-02-17T14:58:36.806Z,11.94
2018-02-17T15:01:04.229Z,12.09
2018-02-17T15:03:31.630Z,12.12
2018-02-17T15:05:59.088Z,11.99
2018-02-17T15:08:26.834Z,11.60
2018-02-17T15:10:54.275Z,11.54
2018-02-17T15:13:21.930Z,11.75
2018-02-17T15:15:49.373Z,11.67
2018-02-17T15:18:16.778Z,11.72
2018-02-17T15:20:44.187Z,11.45
2018-02-17T15:23:11.618Z,11.37
2018-02-17T15:25:39.388Z,11.10
2018-02-17T15:28:07.566Z,11.04
2018-02-17T15:30:35.018Z,10.99
2018-02-17T15:33:02.469Z,11.18
2018-02-17T15:35:29.891Z,11.08
2018-02-17T15:37:58.358Z,10.94
2018-02-17T15:40:25.766Z,10.94
2018-02-17T15:42:53.170Z,10.85
2018-02-17T15:45:20.773Z,11.16
2018-02-17T15:47:48.277Z,10.90
2018-02-17T15:50:15.690Z,10.67
2018-02-17T15:52:43.143Z,10.48
2018-02-17T15:55:10.568Z,10.52
2018-02-17T15:57:37.990Z,10.49
2018-02-17T16:00:05.427Z,10.56
2018-02-17T16:02:32.834Z,10.55
2018-02-17T16:05:00.282Z,10.37
2018-02-17T16:07:27.701Z,10.26
2018-02-17T16:09:55.187Z,10.11
2018-02-17T16:12:22.644Z,10.45
2018-02-17T16:14:50.059Z,10.50
2018-02-17T16:17:17.538Z,10.48
2018-02-17T16:19:45.007Z,10.58
2018-02-17T16:22:12.474Z,10.61
2018-02-17T16:24:39.902Z,10.43
2018-02-17T16:27:07.313Z,10.48
2018-02-17T16:29:34.710Z,10.49
2018-02-17T16:32:02.142Z,10.25
2018-02-17T16:34:29.561Z,10.14
2018-02-17T16:36:56.970Z,10.18
2018-02-17T16:39:24.458Z,10.49
2018-02-17T16:41:51.874Z,10.41
2018-02-17T16:44:19.298Z,10.27
2018-02-17T16:46:46.739Z,10.39
2018-02-17T16:49:14.166Z,10.18
2018-02-17T16:51:41.563Z,10.18
2018-02-17T16:54:09.002Z,10.33
2018-02-17T16:56:36.398Z,10.37
2018-02-17T16:59:03.856Z,10.28
2018-02-17T17:01:31.346Z,10.14
2018-02-17T17:03:58.810Z,10.18
2018-02-17T17:06:26.313Z,10.01
2018-02-17T17:08:53.796Z,10.10
2018-02-17T17:11:21.511Z,10.06
2018-02-17T17:13:48.915Z,10.11
2018-02-17T17:16:16.354Z,10.29
2018-02-17T17:18:44.835Z,10.26
2018-02-17T17:21:12.234Z,10.02
2018-02-17T17:23:39.701Z,9.92
2018-02-17T17:26:07.102Z,9.94
2018-02-17T17:28:34.497Z,9.81
2018-02-17T17:31:01.906Z,9.78
2018-02-17T17:33:29.334Z,9.71
2018-02-17T17:35:56.775Z,9.82
2018-02-17T17:38:24.170Z,9.82
2018-02-17T17:40:51.658Z,9.75
2018-02-17T17:43:19.058Z,9.51
2018-02-17T17:45:46.446Z,9.54
2018-02-17T17:48:13.846Z,9.53
2018-02-17T17:50:41.271Z,9.41
2018-02-17T17:53:08.673Z,9.28
2018-02-17T17:55:36.110Z,9.19
2018-02-17T17:58:03.506Z,9.20
2018-02-17T18:00:30.913Z,8.95
2018-02-17T18:02:58.303Z,9.07
2018-02-17T18:05:25.733Z,8.93
2018-02-17T18:07:53.240Z,8.85
2018-02-17T18:10:20.606Z,8.95
2018-02-17T18:12:47.997Z,8.94
2018-02-17T18:15:15.400Z,8.94
2018-02-17T18:17:42.879Z,8.87
2018-02-17T18:20:10.359Z,8.87
2018-02-17T18:22:37.866Z,8.80
2018-02-17T18:25:05.278Z,8.84
2018-02-17T18:27:32.718Z,8.80
2018-02-17T18:30:00.264Z,8.69
2018-02-17T18:32:28.518Z,8.72
2018-02-17T18:34:55.919Z,8.73
2018-02-17T18:37:23.376Z,8.61
2018-02-17T18:39:50.813Z,8.59
2018-02-17T18:42:18.225Z,8.51
2018-02-17T18:44:46.101Z,8.52
2018-02-17T18:47:14.692Z,8.45
2018-02-17T18:49:42.138Z,8.44
2018-02-17T18:52:09.578Z,8.38
2018-02-17T18:54:37.003Z,8.37
2018-02-17T18:57:04.402Z,8.40
2018-02-17T18:59:32.154Z,8.29
2018-02-17T19:01:59.614Z,8.26
2018-02-17T19:04:27.057Z,8.14
2018-02-17T19:06:54.487Z,8.17
2018-02-17T19:09:21.927Z,8.19
2018-02-17T19:11:49.358Z,8.14
2018-02-17T19:14:16.830Z,8.07
2018-02-17T19:16:44.232Z,8.10
2018-02-17T19:19:11.630Z,8.28
2018-02-17T19:21:39.074Z,8.23
2018-02-17T19:24:06.466Z,8.18
2018-02-17T19:26:33.938Z,8.16
2018-02-17T19:29:01.343Z,8.10
2018-02-17T19:31:28.746Z,8.12
2018-02-17T19:33:56.179Z,8.11
2018-02-17T19:36:23.698Z,8.07
2018-02-17T19:38:51.094Z,7.89
2018-02-17T19:41:18.550Z,7.92
2018-02-17T19:43:45.942Z,7.88
2018-02-17T19:46:13.540Z,7.93
2018-02-17T19:48:40.946Z,7.93
2018-02-17T19:51:08.380Z,8.07
2018-02-17T19:53:35.782Z,7.89
2018-02-17T19:56:03.206Z,7.64
2018-02-17T19:58:30.646Z,7.55
2018-02-17T20:00:58.046Z,7.47
2018-02-17T20:03:25.445Z,7.52
2018-02-17T20:05:52.854Z,7.59
2018-02-17T20:08:22.195Z,7.61
2018-02-17T20:10:49.626Z,7.48
2018-02-17T20:13:17.049Z,7.39
2018-02-17T20:15:44.494Z,7.39
2018-02-17T20:18:11.883Z,7.51
2018-02-17T20:20:39.270Z,7.26
2018-02-17T20:23:06.747Z,7.49
2018-02-17T20:25:34.147Z,7.44
2018-02-17T20:28:01.582Z,7.51
2018-02-17T20:30:29.004Z,7.56
2018-02-17T20:32:56.412Z,7.56
2018-02-17T20:35:23.806Z,7.51
2018-02-17T20:37:51.210Z,7.33
2018-02-17T20:40:18.605Z,7.33
2018-02-17T20:42:45.998Z,7.24
2018-02-17T20:45:13.438Z,7.26
2018-02-17T20:47:40.843Z,7.28
2018-02-17T20:50:08.238Z,7.26
2018-02-17T20:52:35.766Z,7.24
2018-02-17T20:55:03.194Z,7.24
2018-02-17T20:57:30.599Z,6.93
2018-02-17T20:59:57.994Z,7.09
2018-02-17T21:02:25.444Z,7.15
2018-02-17T21:04:52.862Z,6.99
2018-02-17T21:07:20.256Z,6.86
2018-02-17T21:09:47.665Z,6.98
2018-02-17T21:12:15.091Z,7.07
2018-02-17T21:14:42.486Z,7.04
2018-02-17T21:17:09.883Z,7.04
2018-02-17T21:19:37.326Z,7.03
2018-02-17T21:22:04.838Z,-134.57
2018-02-17T21:24:32.242Z,-134.57
2018-02-17T21:26:59.650Z,-134.57
2018-02-17T21:29:27.053Z,-134.57
2018-02-17T21:31:54.463Z,-134.57
2018-02-17T21:34:21.874Z,-134.57
2018-02-17T21:36:49.282Z,-134.57
2018-02-17T21:39:16.718Z,-134.57
2018-02-17T21:41:44.342Z,-134.57
2018-02-17T21:44:11.737Z,-134.57
2018-02-17T21:46:39.270Z,-134.57
2018-02-17T21:49:06.710Z,-134.57
2018-02-17T21:51:34.114Z,-134.57
2018-02-17T21:54:01.551Z,-134.57
2018-02-17T21:56:28.996Z,-134.57
2018-02-17T21:58:56.451Z,-134.57
2018-02-17T22:01:23.869Z,-134.57
2018-02-17T22:03:51.278Z,-134.57
2018-02-17T22:06:18.679Z,-134.57
2018-02-17T22:08:46.094Z,-134.57
2018-02-17T22:11:13.494Z,-134.57
2018-02-17T22:13:40.910Z,-134.57
2018-02-17T22:16:08.314Z,-134.57
2018-02-17T22:18:35.785Z,-134.57
2018-02-17T22:21:03.190Z,-134.57
2018-02-17T22:23:30.602Z,-134.57
2018-02-17T22:25:58.039Z,-134.57
2018-02-17T22:28:25.449Z,-134.57
2018-02-17T22:30:52.845Z,-134.57
2018-02-17T22:33:20.252Z,-134.57
2018-02-17T22:35:47.690Z,-134.57
2018-02-17T22:38:15.090Z,-134.57
2018-02-17T22:40:42.494Z,-134.57
2018-02-17T22:43:09.934Z,-134.57
2018-02-17T22:45:37.355Z,-134.57
2018-02-17T22:48:04.758Z,-134.57
2018-02-17T22:50:32.198Z,-134.57
2018-02-17T22:52:59.598Z,-134.57
2018-02-17T22:55:27.007Z,-134.57
2018-02-17T22:57:54.447Z,-134.57
2018-02-17T23:00:30.615Z,-134.57
2018-02-17T23:02:58.241Z,-134.57
2018-02-17T23:05:25.505Z,-134.57
2018-02-17T23:07:52.916Z,-134.57
2018-02-17T23:10:20.322Z,-134.57
2018-02-17T23:12:48.121Z,-134.57
2018-02-17T23:15:15.558Z,-134.57
2018-02-17T23:17:42.962Z,-134.57
2018-02-17T23:20:10.446Z,-134.57
2018-02-17T23:22:37.978Z,-134.57
2018-02-17T23:25:05.374Z,-134.57
2018-02-17T23:27:32.850Z,-134.57
2018-02-17T23:30:00.558Z,-134.57
2018-02-17T23:32:27.966Z,-134.57
2018-02-17T23:34:55.438Z,-134.57
2018-02-17T23:37:22.864Z,-134.57
2018-02-17T23:39:50.309Z,-134.57
2018-02-17T23:42:17.714Z,-134.57
2018-02-17T23:44:45.113Z,-134.57
2018-02-17T23:47:12.554Z,-134.57
2018-02-17T23:49:39.958Z,-134.57
2018-02-17T23:52:07.382Z,-134.57
2018-02-17T23:54:34.861Z,-134.57
2018-02-17T23:57:02.262Z,-134.57
2018-02-17T23:59:29.680Z,-134.57
